createdAt,value
2022-08-26T00:01:41.702Z,100030.28
2022-08-26T00:04:11.663Z,100028.94
2022-08-26T00:06:38.735Z,100025.00
2022-08-26T00:09:09.612Z,100027.41
2022-08-26T00:11:36.550Z,100033.44
2022-08-26T00:14:03.053Z,100033.09
2022-08-26T00:16:29.964Z,100027.13
2022-08-26T00:19:19.016Z,100034.44
2022-08-26T00:22:06.963Z,100034.28
2022-08-26T00:24:53.387Z,100037.25
2022-08-26T00:27:40.995Z,100027.97
2022-08-26T00:30:29.747Z,100036.00
2022-08-26T00:33:18.504Z,100035.81
2022-08-26T00:35:47.559Z,100033.31
2022-08-26T00:38:14.760Z,100037.19
2022-08-26T00:40:51.388Z,100035.22
2022-08-26T00:43:19.796Z,100038.31
2022-08-26T00:45:54.187Z,100032.19
2022-08-26T00:48:24.513Z,100026.72
2022-08-26T00:50:58.332Z,100030.81
2022-08-26T00:53:30.255Z,100027.84
2022-08-26T00:56:07.863Z,100025.50
2022-08-26T00:58:38.444Z,100024.81
2022-08-26T01:01:07.500Z,100018.94
2022-08-26T01:03:35.119Z,100014.03
2022-08-26T01:06:03.874Z,100018.50
2022-08-26T01:08:31.503Z,100010.13
2022-08-26T01:11:01.286Z,100014.91
2022-08-26T01:13:30.144Z,100007.38
2022-08-26T01:16:00.838Z,100010.47
2022-08-26T01:18:29.486Z,100010.25
2022-08-26T01:21:08.139Z,100010.56
2022-08-26T01:23:39.087Z,100001.59
2022-08-26T01:26:19.597Z,100014.91
2022-08-26T01:28:51.770Z,100014.19
2022-08-26T01:31:22.334Z,100011.09
2022-08-26T01:34:05.710Z,100011.00
2022-08-26T01:36:32.477Z,100015.50
2022-08-26T01:38:59.324Z,100016.22
2022-08-26T01:41:27.451Z,100013.69
2022-08-26T01:43:57.928Z,100011.16
2022-08-26T01:46:26.810Z,100010.88
2022-08-26T01:48:55.419Z,100013.25
2022-08-26T01:51:25.304Z,100005.97
2022-08-26T01:53:52.173Z,100013.13
2022-08-26T01:56:23.167Z,100016.50
2022-08-26T01:58:57.084Z,100019.41
2022-08-26T02:01:28.931Z,100013.41
2022-08-26T02:04:23.586Z,100023.69
2022-08-26T02:06:51.582Z,100023.13
2022-08-26T02:09:21.324Z,100027.31
2022-08-26T02:11:48.631Z,100027.06
2022-08-26T02:14:24.629Z,100026.91
2022-08-26T02:16:54.673Z,100025.66
2022-08-26T02:19:31.639Z,100025.22
2022-08-26T02:22:03.830Z,100026.34
2022-08-26T02:24:49.928Z,100039.06
2022-08-26T02:27:21.074Z,100032.53
2022-08-26T02:29:53.747Z,100045.81
2022-08-26T02:32:20.243Z,100040.91
2022-08-26T02:34:47.018Z,100035.59
2022-08-26T02:37:14.432Z,100037.19
2022-08-26T02:39:44.475Z,100032.69
2022-08-26T02:42:12.176Z,100026.81
2022-08-26T02:44:39.240Z,100024.16
2022-08-26T02:47:07.762Z,100031.53
2022-08-26T02:49:35.947Z,100029.31
2022-08-26T02:52:03.300Z,100023.44
2022-08-26T02:54:30.017Z,100026.66
2022-08-26T02:56:56.586Z,100015.88
2022-08-26T02:59:24.921Z,100015.88
2022-08-26T03:01:52.160Z,100020.50
2022-08-26T03:04:25.849Z,100023.44
2022-08-26T03:06:53.625Z,100018.13
2022-08-26T03:09:23.425Z,100018.53
2022-08-26T03:11:50.179Z,100015.88
2022-08-26T03:14:16.839Z,100018.69
2022-08-26T03:16:43.696Z,100014.06
2022-08-26T03:19:15.072Z,100019.53
2022-08-26T03:21:45.232Z,100025.25
2022-08-26T03:24:15.078Z,100020.50
2022-08-26T03:26:52.183Z,100020.06
2022-08-26T03:29:40.444Z,100023.13
2022-08-26T03:32:08.466Z,100019.94
2022-08-26T03:34:36.293Z,100023.44
2022-08-26T03:37:03.328Z,100027.75
2022-08-26T03:39:31.474Z,100037.81
2022-08-26T03:41:58.806Z,100033.47
2022-08-26T03:44:26.358Z,100033.50
2022-08-26T03:46:53.900Z,100033.06
2022-08-26T03:49:20.883Z,100037.94
2022-08-26T03:51:47.371Z,100031.22
2022-08-26T03:54:14.150Z,100032.50
2022-08-26T03:56:40.925Z,100027.19
2022-08-26T03:59:08.312Z,100033.88
2022-08-26T04:01:36.185Z,100031.63
2022-08-26T04:04:03.753Z,100030.38
2022-08-26T04:06:36.741Z,100033.88
2022-08-26T04:09:08.400Z,100034.00
2022-08-26T04:11:37.749Z,100034.00
2022-08-26T04:14:07.667Z,100036.81
2022-08-26T04:16:35.248Z,100037.09
2022-08-26T04:19:03.974Z,100035.53
2022-08-26T04:21:30.691Z,100036.66
2022-08-26T04:23:58.321Z,100029.09
2022-08-26T04:26:25.143Z,100034.97
2022-08-26T04:28:56.001Z,100033.97
2022-08-26T04:31:23.097Z,100037.19
2022-08-26T04:33:50.627Z,100035.50
2022-08-26T04:36:19.934Z,100031.44
2022-08-26T04:38:47.685Z,100033.00
2022-08-26T04:41:14.844Z,100033.84
2022-08-26T04:43:42.276Z,100039.41
2022-08-26T04:46:10.435Z,100039.72
2022-08-26T04:48:40.821Z,100033.13
2022-08-26T04:51:07.524Z,100035.34
2022-08-26T04:53:34.950Z,100031.84
2022-08-26T04:56:05.045Z,100034.19
2022-08-26T04:58:32.661Z,100039.63
2022-08-26T05:00:59.328Z,100043.97
2022-08-26T05:03:30.462Z,100043.25
2022-08-26T05:05:57.993Z,100046.16
2022-08-26T05:08:25.034Z,100046.16
2022-08-26T05:10:56.126Z,100048.81
2022-08-26T05:13:25.368Z,100055.69
2022-08-26T05:15:52.096Z,100049.66
2022-08-26T05:18:22.823Z,100050.63
2022-08-26T05:20:54.001Z,100043.97
2022-08-26T05:23:23.741Z,100052.50
2022-08-26T05:25:57.042Z,100050.69
2022-08-26T05:28:27.180Z,100042.84
2022-08-26T05:30:55.520Z,100051.38
2022-08-26T05:33:23.168Z,100051.25
2022-08-26T05:35:49.800Z,100052.94
2022-08-26T05:38:19.659Z,100052.84
2022-08-26T05:40:52.950Z,100056.88
2022-08-26T05:43:20.492Z,100052.00
2022-08-26T05:45:49.567Z,100056.03
2022-08-26T05:48:19.051Z,100059.25
2022-08-26T05:50:52.417Z,100061.50
2022-08-26T05:53:21.166Z,100067.25
2022-08-26T05:55:50.694Z,100065.59
2022-08-26T05:58:21.087Z,100073.00
2022-08-26T06:01:21.883Z,100070.63
2022-08-26T06:03:57.251Z,100073.16
2022-08-26T06:06:34.661Z,100068.94
2022-08-26T06:09:04.600Z,100068.94
2022-08-26T06:11:32.525Z,100071.72
2022-08-26T06:14:03.924Z,100077.88
2022-08-26T06:16:33.740Z,100077.88
2022-08-26T06:19:03.462Z,100087.88
2022-08-26T06:21:39.263Z,100096.84
2022-08-26T06:24:27.419Z,100105.34
2022-08-26T06:27:01.599Z,100097.53
2022-08-26T06:29:30.635Z,100092.25
2022-08-26T06:31:58.090Z,100089.91
2022-08-26T06:34:29.722Z,100098.34
2022-08-26T06:37:01.310Z,100103.56
2022-08-26T06:39:30.585Z,100110.88
2022-08-26T06:41:57.176Z,100109.72
2022-08-26T06:44:24.476Z,100120.59
2022-08-26T06:46:51.582Z,100108.75
2022-08-26T06:49:18.420Z,100112.28
2022-08-26T06:51:54.337Z,100116.19
2022-08-26T06:54:21.159Z,100113.06
2022-08-26T06:56:48.023Z,100112.06
2022-08-26T06:59:15.494Z,100106.94
2022-08-26T07:01:46.607Z,100106.81
2022-08-26T07:04:15.749Z,100099.97
2022-08-26T07:06:50.276Z,100103.63
2022-08-26T07:09:25.209Z,100102.78
2022-08-26T07:11:56.029Z,100106.47
2022-08-26T07:14:22.971Z,100104.38
2022-08-26T07:16:50.808Z,100107.94
2022-08-26T07:19:27.574Z,100112.25
2022-08-26T07:22:04.215Z,100112.81
2022-08-26T07:24:33.677Z,100110.97
2022-08-26T07:27:06.179Z,100104.22
2022-08-26T07:29:33.410Z,100108.00
2022-08-26T07:32:00.773Z,100111.44
2022-08-26T07:34:28.179Z,100111.84
2022-08-26T07:36:56.687Z,100103.06
2022-08-26T07:39:24.639Z,100107.84
2022-08-26T07:41:51.942Z,100114.22
2022-08-26T07:44:19.307Z,100112.63
2022-08-26T07:46:46.839Z,100116.06
2022-08-26T07:49:25.035Z,100111.03
2022-08-26T07:51:54.851Z,100109.19
2022-08-26T07:54:24.616Z,100104.78
2022-08-26T07:56:54.300Z,100109.44
2022-08-26T07:59:23.806Z,100112.94
2022-08-26T08:01:51.018Z,100110.97
2022-08-26T08:04:20.981Z,100110.97
2022-08-26T08:06:52.765Z,100112.25
2022-08-26T08:09:19.500Z,100107.44
2022-08-26T08:11:49.786Z,100103.63
2022-08-26T08:14:18.306Z,100096.47
2022-08-26T08:16:51.105Z,100114.31
2022-08-26T08:19:21.899Z,100103.41
2022-08-26T08:21:49.399Z,100110.06
2022-08-26T08:24:16.337Z,100100.88
2022-08-26T08:26:42.912Z,100107.66
2022-08-26T08:29:09.570Z,100108.22
2022-08-26T08:34:25.982Z,100111.34
2022-08-26T08:36:53.660Z,100117.13
2022-08-26T08:39:21.958Z,100111.41
2022-08-26T08:41:56.514Z,100113.81
2022-08-26T08:47:03.711Z,100102.44
2022-08-26T08:49:32.986Z,100105.63
2022-08-26T08:52:11.359Z,100107.22
2022-08-26T08:54:38.108Z,100107.16
2022-08-26T08:57:18.368Z,100104.59
2022-08-26T08:59:58.489Z,100114.81
2022-08-26T09:02:37.207Z,100117.47
2022-08-26T09:05:35.726Z,100112.63
2022-08-26T09:08:12.177Z,100110.69
2022-08-26T09:10:45.552Z,100110.63
2022-08-26T09:13:24.877Z,100105.72
2022-08-26T09:16:06.674Z,100100.66
2022-08-26T09:18:37.015Z,100099.63
2022-08-26T09:21:08.330Z,100093.41
2022-08-26T09:23:38.461Z,100091.50
2022-08-26T09:26:18.667Z,100089.16
2022-08-26T09:29:01.773Z,100087.31
2022-08-26T09:31:32.342Z,100086.81
2022-08-26T09:34:27.368Z,100084.59
2022-08-26T09:36:59.654Z,100088.75
2022-08-26T09:39:30.216Z,100097.03
2022-08-26T09:42:08.453Z,100103.16
2022-08-26T09:44:55.195Z,100107.81
2022-08-26T09:47:45.789Z,100101.69
2022-08-26T09:50:31.552Z,100095.25
2022-08-26T09:53:03.933Z,100080.84
2022-08-26T09:55:37.192Z,100071.53
2022-08-26T09:58:08.680Z,100064.22
2022-08-26T10:00:40.061Z,100057.34
2022-08-26T10:03:11.755Z,100054.31
2022-08-26T10:05:56.206Z,100050.25
2022-08-26T10:08:33.352Z,100052.38
2022-08-26T10:11:04.607Z,100047.47
2022-08-26T10:13:31.153Z,100056.06
2022-08-26T10:16:28.593Z,100046.00
2022-08-26T10:19:10.438Z,100035.09
2022-08-26T10:21:56.903Z,100032.38
2022-08-26T10:24:30.927Z,100024.91
2022-08-26T10:27:05.730Z,100021.28
2022-08-26T10:29:42.992Z,100006.97
2022-08-26T10:32:19.577Z,100026.75
2022-08-26T10:34:46.193Z,100025.81
2022-08-26T10:37:18.433Z,100028.34
2022-08-26T10:40:07.475Z,100032.59
2022-08-26T10:42:46.404Z,100029.81
2022-08-26T10:45:25.196Z,100025.44
2022-08-26T10:47:58.281Z,100023.53
2022-08-26T10:50:31.876Z,100024.44
2022-08-26T10:53:16.964Z,100012.81
2022-08-26T10:55:57.021Z,100008.78
2022-08-26T10:58:45.188Z,100006.53
2022-08-26T11:01:41.285Z,100000.19
2022-08-26T11:04:34.887Z,99987.63
2022-08-26T11:07:31.698Z,99995.97
2022-08-26T11:10:04.963Z,99989.09
2022-08-26T11:12:34.918Z,99982.22
2022-08-26T11:15:08.151Z,99984.09
2022-08-26T11:17:44.507Z,99985.44
2022-08-26T11:20:23.909Z,99986.31
2022-08-26T11:22:51.828Z,99981.31
2022-08-26T11:25:21.202Z,99986.19
2022-08-26T11:27:47.624Z,99973.31
2022-08-26T11:30:15.720Z,99965.59
2022-08-26T11:32:51.486Z,99963.34
2022-08-26T11:35:17.887Z,99962.53
2022-08-26T11:37:48.067Z,99961.47
2022-08-26T11:40:21.192Z,99961.13
2022-08-26T11:43:02.365Z,99956.88
2022-08-26T11:45:38.942Z,99953.63
2022-08-26T11:48:17.916Z,99952.22
2022-08-26T11:50:57.159Z,99947.38
2022-08-26T11:53:25.590Z,99948.59
2022-08-26T11:55:56.149Z,99948.84
2022-08-26T11:58:24.652Z,99950.56
2022-08-26T12:00:58.217Z,99943.28
2022-08-26T12:03:45.575Z,99947.25
2022-08-26T12:09:01.200Z,99947.16
2022-08-26T12:11:31.482Z,99934.88
2022-08-26T12:13:58.346Z,99925.63
2022-08-26T12:16:28.229Z,99919.50
2022-08-26T12:18:57.325Z,99916.56
2022-08-26T12:21:34.645Z,99914.38
2022-08-26T12:24:03.309Z,99903.09
2022-08-26T12:26:31.815Z,99908.91
2022-08-26T12:29:20.281Z,99913.38
2022-08-26T12:32:17.486Z,99913.34
2022-08-26T12:34:46.966Z,99902.50
2022-08-26T12:37:15.267Z,99904.28
2022-08-26T12:39:44.969Z,99909.09
2022-08-26T12:42:17.300Z,99902.06
2022-08-26T12:44:53.418Z,99904.59
2022-08-26T12:47:51.681Z,99901.78
2022-08-26T12:50:22.603Z,99900.66
2022-08-26T12:53:10.199Z,99896.88
2022-08-26T12:55:58.417Z,99892.94
2022-08-26T12:58:31.789Z,99893.44
2022-08-26T13:01:24.754Z,99884.72
2022-08-26T13:03:52.060Z,99883.19
2022-08-26T13:06:22.157Z,99882.09
2022-08-26T13:08:51.331Z,99876.19
2022-08-26T13:11:23.711Z,99868.59
2022-08-26T13:13:53.449Z,99862.31
2022-08-26T13:16:21.801Z,99847.84
2022-08-26T13:18:52.958Z,99842.34
2022-08-26T13:21:22.863Z,99839.84
2022-08-26T13:23:50.466Z,99844.22
2022-08-26T13:26:18.086Z,99835.78
2022-08-26T13:28:44.849Z,99830.69
2022-08-26T13:31:19.517Z,99836.63
2022-08-26T13:33:46.664Z,99829.75
2022-08-26T13:36:15.191Z,99829.94
2022-08-26T13:38:42.209Z,99825.41
2022-08-26T13:41:15.079Z,99817.94
2022-08-26T13:43:43.303Z,99822.94
2022-08-26T13:46:10.048Z,99817.25
2022-08-26T13:48:36.807Z,99827.78
2022-08-26T13:51:08.275Z,99820.66
2022-08-26T13:53:35.871Z,99824.00
2022-08-26T13:56:02.696Z,99822.78
2022-08-26T13:58:29.640Z,99834.16
2022-08-26T14:00:58.339Z,99815.19
2022-08-26T14:03:24.972Z,99819.50
2022-08-26T14:05:53.322Z,99815.91
2022-08-26T14:08:21.012Z,99819.41
2022-08-26T14:13:20.061Z,99819.53
2022-08-26T14:15:46.965Z,99814.75
2022-08-26T14:18:18.923Z,99829.09
2022-08-26T14:20:49.614Z,99829.25
2022-08-26T14:23:17.833Z,99826.09
2022-08-26T14:25:44.340Z,99825.09
2022-08-26T14:28:11.985Z,99825.06
2022-08-26T14:30:44.213Z,99819.81
2022-08-26T14:33:13.450Z,99824.41
2022-08-26T14:35:40.421Z,99814.53
2022-08-26T14:38:16.653Z,99817.31
2022-08-26T14:40:44.868Z,99813.44
2022-08-26T14:43:15.129Z,99811.94
2022-08-26T14:45:44.066Z,99807.78
2022-08-26T14:48:10.925Z,99808.97
2022-08-26T14:50:38.192Z,99805.16
2022-08-26T14:53:23.319Z,99801.19
2022-08-26T14:55:50.405Z,99801.09
2022-08-26T14:58:17.241Z,99816.91
2022-08-26T15:00:43.756Z,99800.88
2022-08-26T15:03:10.706Z,99800.16
2022-08-26T15:05:38.653Z,99804.44
2022-08-26T15:08:10.491Z,99803.31
2022-08-26T15:10:38.087Z,99801.72
2022-08-26T15:13:04.847Z,99801.97
2022-08-26T15:15:31.274Z,99817.63
2022-08-26T15:17:57.736Z,99811.47
2022-08-26T15:20:25.020Z,99819.94
2022-08-26T15:22:51.682Z,99832.50
2022-08-26T15:25:20.178Z,99828.16
2022-08-26T15:27:46.884Z,99844.94
2022-08-26T15:30:13.735Z,99846.88
2022-08-26T15:32:40.376Z,99840.56
2022-08-26T15:35:09.257Z,99832.13
2022-08-26T15:37:36.772Z,99829.75
2022-08-26T15:40:04.725Z,99815.50
2022-08-26T15:42:31.367Z,99822.44
2022-08-26T15:44:58.048Z,99819.50
2022-08-26T15:47:25.031Z,99836.50
2022-08-26T15:49:51.629Z,99842.34
2022-08-26T15:52:18.313Z,99868.28
2022-08-26T15:54:44.953Z,99861.81
2022-08-26T15:57:13.615Z,99864.16
2022-08-26T15:59:42.344Z,99875.91
2022-08-26T16:02:09.749Z,99874.56
2022-08-26T16:04:36.636Z,99873.69
2022-08-26T16:07:04.568Z,99874.00
2022-08-26T16:09:31.264Z,99876.66
2022-08-26T16:11:58.053Z,99887.63
2022-08-26T16:14:25.530Z,99891.22
2022-08-26T16:16:53.539Z,99892.59
2022-08-26T16:19:20.956Z,99893.38
2022-08-26T16:21:48.356Z,99883.16
2022-08-26T16:24:14.864Z,99897.00
2022-08-26T16:26:43.727Z,99901.88
2022-08-26T16:29:12.441Z,99908.06
2022-08-26T16:31:39.451Z,99909.13
2022-08-26T16:34:08.140Z,99916.94
2022-08-26T16:36:36.234Z,99919.63
2022-08-26T16:39:05.068Z,99928.09
2022-08-26T16:41:32.293Z,99921.47
2022-08-26T16:43:59.546Z,99909.94
2022-08-26T16:46:26.790Z,99918.50
2022-08-26T16:48:55.213Z,99930.69
2022-08-26T16:51:23.875Z,99926.03
2022-08-26T16:53:51.678Z,99929.09
2022-08-26T16:56:23.963Z,99934.91
2022-08-26T16:59:00.143Z,99934.31
2022-08-26T17:01:26.808Z,99928.59
2022-08-26T17:03:54.106Z,99938.69
2022-08-26T17:06:20.925Z,99941.38
2022-08-26T17:08:47.759Z,99957.38
2022-08-26T17:11:15.177Z,99958.63
2022-08-26T17:13:41.829Z,99957.69
2022-08-26T17:16:10.661Z,99960.50
2022-08-26T17:18:37.755Z,99962.56
2022-08-26T17:21:08.121Z,99958.88
2022-08-26T17:23:35.813Z,99958.25
2022-08-26T17:26:03.256Z,99960.53
2022-08-26T17:28:29.836Z,99959.53
2022-08-26T17:30:58.305Z,99956.09
2022-08-26T17:33:25.957Z,99950.81
2022-08-26T17:35:53.618Z,99953.41
2022-08-26T17:38:21.347Z,99954.44
2022-08-26T17:40:48.401Z,99955.25
2022-08-26T17:43:15.230Z,99968.66
2022-08-26T17:45:41.693Z,99967.72
2022-08-26T17:48:08.580Z,99972.41
2022-08-26T17:50:35.602Z,99978.06
2022-08-26T17:53:02.140Z,99974.63
2022-08-26T17:55:29.057Z,99973.19
2022-08-26T17:57:55.603Z,99975.22
2022-08-26T18:00:26.414Z,99980.59
2022-08-26T18:02:54.813Z,99986.31
2022-08-26T18:05:22.219Z,99989.75
2022-08-26T18:07:48.785Z,99977.72
2022-08-26T18:10:17.674Z,99981.53
2022-08-26T18:12:45.125Z,99982.22
2022-08-26T18:15:15.686Z,99987.09
2022-08-26T18:17:44.597Z,99983.16
2022-08-26T18:20:15.292Z,99982.63
2022-08-26T18:22:42.964Z,99983.59
2022-08-26T18:25:10.120Z,99982.25
2022-08-26T18:27:37.539Z,99980.06
2022-08-26T18:30:10.499Z,99979.50
2022-08-26T18:32:39.002Z,99988.06
2022-08-26T18:35:06.115Z,99987.94
2022-08-26T18:37:34.203Z,99993.31
2022-08-26T18:40:01.009Z,99994.13
2022-08-26T18:42:28.351Z,100002.34
2022-08-26T18:44:55.318Z,100010.72
2022-08-26T18:47:22.871Z,100008.69
2022-08-26T18:49:49.652Z,100024.28
2022-08-26T18:52:16.223Z,100020.56
2022-08-26T18:54:43.338Z,100024.13
2022-08-26T18:57:10.339Z,100027.28
2022-08-26T18:59:37.813Z,100037.47
2022-08-26T19:02:05.264Z,100037.13
2022-08-26T19:04:32.198Z,100045.34
2022-08-26T19:06:58.953Z,100043.00
2022-08-26T19:09:28.367Z,100042.16
2022-08-26T19:14:28.400Z,100048.91
2022-08-26T19:16:55.600Z,100055.16
2022-08-26T19:19:25.555Z,100065.53
2022-08-26T19:21:54.912Z,100069.03
2022-08-26T19:24:23.045Z,100074.75
2022-08-26T19:26:57.854Z,100077.13
2022-08-26T19:29:27.559Z,100079.38
2022-08-26T19:31:54.525Z,100075.38
2022-08-26T19:34:21.119Z,100086.59
2022-08-26T19:36:48.124Z,100083.81
2022-08-26T19:39:14.579Z,100091.91
2022-08-26T19:41:41.532Z,100092.25
2022-08-26T19:44:12.984Z,100097.28
2022-08-26T19:46:40.174Z,100088.63
2022-08-26T19:49:06.837Z,100096.84
2022-08-26T19:51:36.512Z,100088.63
2022-08-26T19:54:04.216Z,100090.22
2022-08-26T19:56:31.609Z,100092.38
2022-08-26T19:58:59.078Z,100090.25
2022-08-26T20:01:30.852Z,100097.09
2022-08-26T20:03:57.650Z,100098.44
2022-08-26T20:06:24.393Z,100093.56
2022-08-26T20:08:52.020Z,100099.31
2022-08-26T20:11:20.689Z,100098.84
2022-08-26T20:13:48.143Z,100094.63
2022-08-26T20:16:16.574Z,100096.53
2022-08-26T20:19:03.317Z,100105.44
2022-08-26T20:21:34.024Z,100107.97
2022-08-26T20:24:04.998Z,100104.47
2022-08-26T20:26:34.538Z,100099.97
2022-08-26T20:29:03.579Z,100118.13
2022-08-26T20:31:31.306Z,100115.91
2022-08-26T20:33:58.032Z,100117.56
2022-08-26T20:36:27.335Z,100110.47
2022-08-26T20:38:55.328Z,100117.41
2022-08-26T20:41:25.249Z,100115.50
2022-08-26T20:43:52.867Z,100119.25
2022-08-26T20:46:24.105Z,100116.44
2022-08-26T20:48:52.611Z,100128.75
2022-08-26T20:51:20.351Z,100125.25
2022-08-26T20:53:50.645Z,100121.41
2022-08-26T20:56:22.108Z,100118.56
2022-08-26T20:58:49.963Z,100106.06
2022-08-26T21:01:20.142Z,100102.66
2022-08-26T21:03:48.023Z,100097.09
2022-08-26T21:06:14.784Z,100101.41
2022-08-26T21:08:43.196Z,100099.56
2022-08-26T21:11:11.517Z,100099.06
2022-08-26T21:14:01.273Z,100089.94
2022-08-26T21:16:24.847Z,100100.50
2022-08-26T21:18:51.646Z,100099.75
2022-08-26T21:21:18.534Z,100098.22
2022-08-26T21:23:52.165Z,100095.78
2022-08-26T21:26:18.896Z,100102.72
2022-08-26T21:28:46.309Z,100101.47
2022-08-26T21:31:15.901Z,100109.38
2022-08-26T21:33:43.138Z,100112.34
2022-08-26T21:36:11.524Z,100124.69
2022-08-26T21:38:38.545Z,100121.03
2022-08-26T21:41:09.357Z,100116.16
2022-08-26T21:43:36.607Z,100120.50
2022-08-26T21:46:14.310Z,100124.00
2022-08-26T21:48:56.115Z,100122.91
2022-08-26T21:51:25.273Z,100130.72
2022-08-26T21:53:54.651Z,100133.81
2022-08-26T21:56:26.109Z,100137.06
2022-08-26T21:58:54.986Z,100137.75
2022-08-26T22:01:24.671Z,100139.03
2022-08-26T22:03:54.627Z,100140.91
2022-08-26T22:06:26.961Z,100147.06
2022-08-26T22:08:54.569Z,100154.06
2022-08-26T22:11:21.651Z,100141.34
2022-08-26T22:13:49.313Z,100145.53
2022-08-26T22:16:16.915Z,100152.81
2022-08-26T22:18:45.136Z,100153.97
2022-08-26T22:21:15.419Z,100145.56
2022-08-26T22:23:41.975Z,100155.22
2022-08-26T22:26:10.559Z,100143.06
2022-08-26T22:28:37.225Z,100139.66
2022-08-26T22:31:03.894Z,100136.31
2022-08-26T22:33:30.689Z,100143.59
2022-08-26T22:35:57.359Z,100143.91
2022-08-26T22:38:24.007Z,100146.56
2022-08-26T22:40:56.468Z,100152.75
2022-08-26T22:43:28.609Z,100143.06
2022-08-26T22:45:57.104Z,100146.25
2022-08-26T22:48:26.372Z,100150.75
2022-08-26T22:50:59.604Z,100149.63
2022-08-26T22:53:27.305Z,100148.69
2022-08-26T22:55:54.356Z,100148.00
2022-08-26T22:58:21.329Z,100153.41
2022-08-26T23:00:57.846Z,100148.53
2022-08-26T23:03:27.021Z,100153.72
2022-08-26T23:05:55.403Z,100150.94
2022-08-26T23:08:23.307Z,100158.50
2022-08-26T23:10:50.663Z,100157.03
2022-08-26T23:13:18.705Z,100158.34
2022-08-26T23:15:45.735Z,100150.09
2022-08-26T23:18:14.197Z,100155.00
2022-08-26T23:20:40.877Z,100162.28
2022-08-26T23:23:08.131Z,100159.06
2022-08-26T23:25:35.237Z,100165.09
2022-08-26T23:28:02.440Z,100164.81
2022-08-26T23:30:32.046Z,100163.28
2022-08-26T23:32:58.931Z,100162.19
2022-08-26T23:35:27.083Z,100156.59
2022-08-26T23:37:53.625Z,100151.84
2022-08-26T23:40:28.074Z,100158.28
2022-08-26T23:42:56.743Z,100145.41
2022-08-26T23:45:24.514Z,100155.91
2022-08-26T23:47:52.185Z,100152.81
2022-08-26T23:50:22.246Z,100148.72
2022-08-26T23:53:08.912Z,100146.81
2022-08-26T23:55:38.000Z,100149.56
2022-08-26T23:58:05.836Z,100154.78
